Terminal Aerodrome Forecast
Issued by NWS Northern Indiana

Home | Current Version | Previous Version | Graphics & Text | Print | Product List | Glossary On
Versions: 1 2 3 4 5 6 7 8 9 10 11 12 13 14 15 16 17
019
FTUS43 KIWX 190539
TAFFWA
TAF
KFWA 190539Z 1906/2006 32010KT 2SM -RA BR OVC004
     FM190800 33012KT 3SM -RASN BR OVC008
     FM191100 34014G24KT P6SM VCSH BKN015
     FM191500 32014G22KT P6SM SCT250
     FM200400 31006KT P6SM SKC=

USA.gov is the U.S. government's official web portal to all federal, state and local government web resources and services.